createdAt,value
2019-05-10T00:01:03.499Z,2.50
2019-05-10T00:03:32.151Z,2.80
2019-05-10T00:06:00.885Z,2.77
2019-05-10T00:08:29.721Z,2.67
2019-05-10T00:10:59.021Z,3.30
2019-05-10T00:13:27.703Z,3.10
2019-05-10T00:15:56.525Z,3.08
2019-05-10T00:18:25.258Z,2.87
2019-05-10T00:20:53.871Z,3.33
2019-05-10T00:23:22.585Z,2.98
2019-05-10T00:25:51.445Z,3.05
2019-05-10T00:28:20.223Z,2.98
2019-05-10T00:30:49.059Z,3.02
2019-05-10T00:33:17.844Z,3.30
2019-05-10T00:35:46.527Z,3.05
2019-05-10T00:38:15.191Z,3.20
2019-05-10T00:40:43.932Z,3.22
2019-05-10T00:43:12.583Z,2.95
2019-05-10T00:45:41.281Z,3.20
2019-05-10T00:48:09.899Z,3.40
2019-05-10T00:50:38.557Z,3.35
2019-05-10T00:53:07.227Z,3.20
2019-05-10T00:55:35.917Z,3.27
2019-05-10T00:58:04.604Z,3.60
2019-05-10T01:00:33.284Z,3.47
2019-05-10T01:03:01.890Z,3.60
2019-05-10T01:05:30.508Z,3.40
2019-05-10T01:07:59.245Z,3.27
2019-05-10T01:10:27.928Z,3.15
2019-05-10T01:12:56.546Z,3.35
2019-05-10T01:15:25.201Z,3.27
2019-05-10T01:17:53.813Z,2.95
2019-05-10T01:20:22.468Z,3.60
2019-05-10T01:22:51.142Z,3.05
2019-05-10T01:25:34.049Z,3.00
2019-05-10T01:27:50.164Z,3.30
2019-05-10T01:30:20.361Z,3.05
2019-05-10T01:32:48.967Z,3.22
2019-05-10T01:35:17.680Z,3.00
2019-05-10T01:37:46.467Z,3.37
2019-05-10T01:40:15.239Z,3.27
2019-05-10T01:42:43.917Z,3.55
2019-05-10T01:45:13.183Z,3.77
2019-05-10T01:47:41.791Z,3.35
2019-05-10T01:50:10.864Z,3.17
2019-05-10T01:52:39.479Z,3.22
2019-05-10T01:55:08.978Z,3.33
2019-05-10T01:57:37.636Z,3.02
2019-05-10T02:00:08.954Z,3.02
2019-05-10T02:02:37.613Z,2.92
2019-05-10T02:05:07.525Z,3.12
2019-05-10T02:07:36.131Z,3.15
2019-05-10T02:10:08.947Z,3.58
2019-05-10T02:12:37.606Z,2.67
2019-05-10T02:15:10.055Z,2.80
2019-05-10T02:17:38.666Z,2.45
2019-05-10T02:20:07.836Z,2.70
2019-05-10T02:22:36.558Z,2.80
2019-05-10T02:25:06.783Z,2.80
2019-05-10T02:27:35.507Z,2.80
2019-05-10T02:30:05.866Z,2.87
2019-05-10T02:32:34.854Z,2.90
2019-05-10T02:35:05.707Z,2.83
2019-05-10T02:37:34.360Z,3.12
2019-05-10T02:40:04.298Z,2.75
2019-05-10T02:42:33.482Z,2.83
2019-05-10T02:45:02.663Z,2.90
2019-05-10T02:47:31.285Z,3.12
2019-05-10T02:50:00.081Z,2.58
2019-05-10T02:52:28.739Z,3.10
2019-05-10T02:54:57.732Z,2.72
2019-05-10T02:57:26.834Z,2.47
2019-05-10T02:59:56.050Z,2.83
2019-05-10T03:02:26.306Z,2.50
2019-05-10T03:04:55.700Z,2.47
2019-05-10T03:07:26.179Z,2.47
2019-05-10T03:09:54.843Z,2.58
2019-05-10T03:12:25.833Z,2.75
2019-05-10T03:14:57.316Z,2.22
2019-05-10T03:17:27.668Z,2.80
2019-05-10T03:19:58.205Z,2.50
2019-05-10T03:22:26.967Z,2.72
2019-05-10T03:24:55.868Z,2.30
2019-05-10T03:27:24.514Z,2.12
2019-05-10T03:29:53.194Z,1.90
2019-05-10T03:32:22.578Z,1.72
2019-05-10T03:34:51.265Z,1.60
2019-05-10T03:37:20.285Z,1.42
2019-05-10T03:39:48.964Z,1.82
2019-05-10T03:42:17.695Z,2.47
2019-05-10T03:44:46.308Z,1.57
2019-05-10T03:47:15.039Z,1.90
2019-05-10T03:49:43.690Z,2.05
2019-05-10T03:52:12.366Z,2.17
2019-05-10T03:54:41.030Z,2.10
2019-05-10T03:57:13.920Z,2.10
2019-05-10T03:59:40.094Z,2.27
2019-05-10T04:02:08.781Z,2.27
2019-05-10T04:04:37.624Z,2.37
2019-05-10T04:07:06.424Z,2.05
2019-05-10T04:09:35.087Z,1.82
2019-05-10T04:12:03.917Z,1.32
2019-05-10T04:14:32.529Z,0.98
2019-05-10T04:17:01.271Z,1.10
2019-05-10T04:19:29.936Z,1.00
2019-05-10T04:21:58.621Z,1.10
2019-05-10T04:24:27.278Z,1.00
2019-05-10T04:26:56.115Z,0.90
2019-05-10T04:29:24.737Z,1.00
2019-05-10T04:31:53.389Z,0.85
2019-05-10T04:34:22.050Z,1.15
2019-05-10T04:36:50.729Z,1.10
2019-05-10T04:39:19.388Z,1.10
2019-05-10T04:41:48.050Z,1.10
2019-05-10T04:44:16.724Z,1.40
2019-05-10T04:46:45.405Z,1.95
2019-05-10T04:49:14.088Z,2.00
2019-05-10T04:51:42.698Z,4.03
2019-05-10T04:54:11.389Z,6.58
2019-05-10T04:56:40.128Z,6.53
2019-05-10T04:59:08.748Z,5.40
2019-05-10T05:01:37.405Z,5.30
2019-05-10T05:04:06.102Z,3.02
2019-05-10T05:06:34.715Z,3.02
2019-05-10T05:09:05.515Z,2.27
2019-05-10T05:11:34.173Z,1.82
2019-05-10T05:14:02.897Z,2.10
2019-05-10T05:16:31.557Z,1.70
2019-05-10T05:19:00.170Z,1.40
2019-05-10T05:21:28.822Z,1.50
2019-05-10T05:23:57.434Z,1.47
2019-05-10T05:26:26.088Z,2.10
2019-05-10T05:28:54.702Z,1.82
2019-05-10T05:31:23.421Z,1.90
2019-05-10T05:33:52.104Z,1.67
2019-05-10T05:36:20.870Z,2.30
2019-05-10T05:38:49.694Z,2.27
2019-05-10T05:41:18.490Z,1.80
2019-05-10T05:43:48.254Z,1.90
2019-05-10T05:46:17.149Z,1.98
2019-05-10T05:48:45.762Z,1.85
2019-05-10T05:51:14.529Z,2.00
2019-05-10T05:53:44.789Z,2.10
2019-05-10T05:56:14.642Z,2.05
2019-05-10T05:58:44.436Z,1.85
2019-05-10T06:01:24.729Z,1.85
2019-05-10T06:03:44.359Z,1.75
2019-05-10T06:06:21.574Z,1.70
2019-05-10T06:08:43.478Z,1.62
2019-05-10T06:11:12.202Z,1.82
2019-05-10T06:13:40.863Z,1.80
2019-05-10T06:16:12.703Z,1.75
2019-05-10T06:18:41.637Z,1.72
2019-05-10T06:21:10.326Z,1.67
2019-05-10T06:23:39.011Z,1.55
2019-05-10T06:26:08.085Z,1.57
2019-05-10T06:28:57.705Z,1.60
2019-05-10T06:31:08.504Z,1.80
2019-05-10T06:33:39.672Z,1.70
2019-05-10T06:36:07.505Z,1.72
2019-05-10T06:38:36.160Z,1.70
2019-05-10T06:41:10.110Z,1.80
2019-05-10T06:43:35.276Z,1.60
2019-05-10T06:46:04.176Z,1.50
2019-05-10T06:48:33.665Z,1.80
2019-05-10T06:51:08.892Z,1.57
2019-05-10T06:53:32.921Z,1.65
2019-05-10T06:56:01.588Z,1.60
2019-05-10T06:58:35.741Z,1.60
2019-05-10T07:01:00.585Z,1.80
2019-05-10T07:03:29.255Z,1.50
2019-05-10T07:05:57.869Z,1.72
2019-05-10T07:08:26.538Z,1.72
2019-05-10T07:10:55.146Z,1.55
2019-05-10T07:13:23.959Z,1.62
2019-05-10T07:15:52.832Z,1.82
2019-05-10T07:18:22.689Z,1.62
2019-05-10T07:20:52.041Z,1.50
2019-05-10T07:23:20.698Z,1.80
2019-05-10T07:25:49.357Z,1.67
2019-05-10T07:28:18.024Z,1.70
2019-05-10T07:30:46.687Z,1.67
2019-05-10T07:33:15.345Z,1.47
2019-05-10T07:35:44.197Z,1.60
2019-05-10T07:38:13.218Z,1.45
2019-05-10T07:40:42.625Z,1.65
2019-05-10T07:43:11.242Z,1.67
2019-05-10T07:45:39.989Z,1.80
2019-05-10T07:48:10.373Z,1.57
2019-05-10T07:50:42.217Z,1.62
2019-05-10T07:53:09.395Z,1.80
2019-05-10T07:55:38.001Z,1.70
2019-05-10T07:58:07.049Z,1.85
2019-05-10T08:00:38.158Z,1.60
2019-05-10T08:03:13.100Z,1.60
2019-05-10T08:05:38.931Z,1.77
2019-05-10T08:08:09.413Z,1.87
2019-05-10T08:10:39.377Z,1.72
2019-05-10T08:13:08.516Z,1.67
2019-05-10T08:15:38.407Z,1.90
2019-05-10T08:18:09.652Z,1.77
2019-05-10T08:20:49.313Z,1.80
2019-05-10T08:23:08.084Z,1.98
2019-05-10T08:25:43.867Z,1.80
2019-05-10T08:28:07.102Z,1.75
2019-05-10T08:30:51.863Z,1.90
2019-05-10T08:33:14.481Z,2.17
2019-05-10T08:35:46.291Z,1.90
2019-05-10T08:38:13.941Z,2.30
2019-05-10T08:40:43.030Z,2.20
2019-05-10T08:43:16.131Z,2.15
2019-05-10T08:45:44.965Z,2.02
2019-05-10T08:48:12.911Z,2.10
2019-05-10T08:50:50.767Z,2.08
2019-05-10T08:53:16.269Z,1.80
2019-05-10T08:55:43.248Z,1.67
2019-05-10T08:58:12.572Z,2.12
2019-05-10T09:00:54.412Z,2.30
2019-05-10T09:03:18.012Z,2.10
2019-05-10T09:05:43.265Z,2.25
2019-05-10T09:08:19.644Z,2.10
2019-05-10T09:10:42.856Z,2.00
2019-05-10T09:13:12.872Z,2.33
2019-05-10T09:15:51.158Z,2.00
2019-05-10T09:18:12.907Z,1.90
2019-05-10T09:20:42.278Z,2.00
2019-05-10T09:23:15.227Z,2.10
2019-05-10T09:25:42.568Z,1.70
2019-05-10T09:28:16.463Z,1.80
2019-05-10T09:30:56.270Z,1.62
2019-05-10T09:33:14.455Z,1.90
2019-05-10T09:35:47.079Z,1.87
2019-05-10T09:38:13.127Z,1.95
2019-05-10T09:40:50.782Z,2.08
2019-05-10T09:43:14.689Z,2.60
2019-05-10T09:45:42.580Z,2.80
2019-05-10T09:48:12.061Z,2.90
2019-05-10T09:50:46.731Z,4.05
2019-05-10T09:53:13.548Z,3.90
2019-05-10T09:55:45.494Z,4.15
2019-05-10T09:58:12.420Z,3.85
2019-05-10T10:00:41.909Z,3.85
2019-05-10T10:03:12.732Z,3.98
2019-05-10T10:05:41.091Z,4.17
2019-05-10T10:08:11.028Z,4.10
2019-05-10T10:10:40.530Z,4.00
2019-05-10T10:13:13.523Z,4.25
2019-05-10T10:15:39.805Z,3.90
2019-05-10T10:18:12.724Z,3.30
2019-05-10T10:20:43.382Z,3.30
2019-05-10T10:23:09.153Z,3.30
2019-05-10T10:25:40.448Z,2.87
2019-05-10T10:28:16.712Z,3.17
2019-05-10T10:30:38.589Z,4.47
2019-05-10T10:33:11.310Z,4.90
2019-05-10T10:35:38.079Z,6.50
2019-05-10T10:38:08.131Z,6.53
2019-05-10T10:40:44.243Z,6.60
2019-05-10T10:43:07.722Z,6.80
2019-05-10T10:45:37.641Z,6.80
2019-05-10T10:48:08.453Z,6.87
2019-05-10T10:50:36.912Z,6.97
2019-05-10T10:53:07.916Z,6.72
2019-05-10T10:55:37.876Z,6.78
2019-05-10T10:58:07.321Z,6.95
2019-05-10T11:00:39.040Z,6.42
2019-05-10T11:03:07.457Z,6.47
2019-05-10T11:05:36.194Z,6.58
2019-05-10T11:08:04.808Z,5.92
2019-05-10T11:10:33.933Z,5.55
2019-05-10T11:13:10.045Z,5.50
2019-05-10T11:15:36.398Z,5.70
2019-05-10T11:18:03.625Z,6.22
2019-05-10T11:20:32.282Z,6.28
2019-05-10T11:23:00.901Z,6.40
2019-05-10T11:25:29.636Z,6.87
2019-05-10T11:28:01.360Z,6.37
2019-05-10T11:30:28.634Z,6.70
2019-05-10T11:32:57.339Z,6.87
2019-05-10T11:35:31.155Z,8.20
2019-05-10T11:37:56.470Z,9.50
2019-05-10T11:40:30.742Z,10.28
2019-05-10T11:42:55.613Z,9.00
2019-05-10T11:45:26.232Z,9.13
2019-05-10T11:47:59.246Z,8.35
2019-05-10T11:50:31.704Z,8.08
2019-05-10T11:52:57.035Z,7.80
2019-05-10T11:55:25.650Z,8.03
2019-05-10T11:58:01.958Z,8.05
2019-05-10T12:03:06.969Z,7.62
2019-05-10T12:05:26.827Z,7.25
2019-05-10T12:07:55.822Z,7.58
2019-05-10T12:13:08.639Z,6.87
2019-05-10T12:15:25.925Z,6.67
2019-05-10T12:17:59.193Z,6.62
2019-05-10T12:20:39.106Z,6.60
2019-05-10T12:22:55.435Z,6.08
2019-05-10T12:25:42.499Z,5.42
2019-05-10T12:26:04.910Z,7.47
2019-05-10T12:26:27.549Z,6.60
2019-05-10T12:27:54.446Z,4.60
2019-05-10T12:30:23.326Z,5.55
2019-05-10T12:32:57.176Z,4.95
2019-05-10T12:35:26.439Z,5.28
2019-05-10T12:37:54.162Z,5.45
2019-05-10T12:40:24.267Z,5.53
2019-05-10T12:42:53.161Z,5.20
2019-05-10T12:45:23.367Z,5.47
2019-05-10T12:47:52.224Z,5.33
2019-05-10T12:50:21.297Z,4.83
2019-05-10T12:53:02.868Z,5.33
2019-05-10T12:55:20.300Z,5.10
2019-05-10T12:57:48.962Z,4.85
2019-05-10T13:00:18.228Z,5.00
2019-05-10T13:02:51.268Z,4.60
2019-05-10T13:05:17.177Z,4.60
2019-05-10T13:07:45.939Z,4.72
2019-05-10T13:10:14.883Z,4.35
2019-05-10T13:12:46.912Z,3.67
2019-05-10T13:15:14.551Z,3.75
2019-05-10T13:17:50.240Z,4.10
2019-05-10T13:20:15.499Z,3.90
2019-05-10T13:22:44.108Z,3.77
2019-05-10T13:25:13.070Z,4.03
2019-05-10T13:27:41.771Z,3.87
2019-05-10T13:30:12.032Z,3.67
2019-05-10T13:32:40.690Z,3.80
2019-05-10T13:35:09.743Z,3.85
2019-05-10T13:37:38.408Z,3.92
2019-05-10T13:40:08.183Z,3.47
2019-05-10T13:42:43.228Z,3.55
2019-05-10T13:45:08.470Z,3.00
2019-05-10T13:47:37.136Z,3.37
2019-05-10T13:50:07.710Z,2.92
2019-05-10T13:52:40.907Z,2.90
2019-05-10T13:55:09.658Z,3.05
2019-05-10T13:57:38.323Z,3.10
2019-05-10T14:00:08.704Z,2.50
2019-05-10T14:02:37.388Z,2.47
2019-05-10T14:05:11.950Z,2.72
2019-05-10T14:07:37.403Z,2.15
2019-05-10T14:10:06.794Z,2.45
2019-05-10T14:12:35.456Z,2.62
2019-05-10T14:15:09.091Z,3.27
2019-05-10T14:17:36.369Z,3.00
2019-05-10T14:20:19.657Z,3.40
2019-05-10T14:22:39.009Z,3.72
2019-05-10T14:25:09.241Z,3.72
2019-05-10T14:27:38.555Z,3.50
2019-05-10T14:30:13.341Z,3.40
2019-05-10T14:35:09.306Z,2.75
2019-05-10T14:37:37.920Z,3.22
2019-05-10T14:40:08.098Z,2.87
2019-05-10T14:42:36.847Z,3.15
2019-05-10T14:45:06.353Z,2.87
2019-05-10T14:47:46.632Z,3.10
2019-05-10T14:50:07.362Z,2.58
2019-05-10T14:52:36.104Z,2.33
2019-05-10T14:55:06.577Z,2.30
2019-05-10T14:57:35.243Z,2.27
2019-05-10T15:00:06.796Z,2.62
2019-05-10T15:02:35.507Z,2.50
2019-05-10T15:05:08.875Z,2.50
2019-05-10T15:07:36.706Z,2.60
2019-05-10T15:10:06.017Z,2.50
2019-05-10T15:12:34.678Z,2.20
2019-05-10T15:15:04.786Z,2.17
2019-05-10T15:17:33.406Z,2.10
2019-05-10T15:20:02.440Z,1.90
2019-05-10T15:22:31.051Z,2.00
2019-05-10T15:24:59.769Z,1.77
2019-05-10T15:27:28.389Z,1.57
2019-05-10T15:29:58.651Z,1.50
2019-05-10T15:32:27.433Z,1.70
2019-05-10T15:35:06.465Z,1.60
2019-05-10T15:37:26.535Z,1.47
2019-05-10T15:39:55.164Z,1.72
2019-05-10T15:42:23.822Z,1.85
2019-05-10T15:44:52.538Z,1.80
2019-05-10T15:47:22.395Z,1.77
2019-05-10T15:49:54.542Z,1.55
2019-05-10T15:52:23.544Z,2.08
2019-05-10T15:54:52.366Z,1.80
2019-05-10T15:57:22.041Z,2.00
2019-05-10T15:59:56.319Z,2.00
2019-05-10T16:02:21.177Z,2.25
2019-05-10T16:04:49.909Z,2.00
2019-05-10T16:07:18.528Z,2.33
2019-05-10T16:09:49.856Z,2.47
2019-05-10T16:12:17.673Z,2.10
2019-05-10T16:14:46.296Z,2.15
2019-05-10T16:17:17.636Z,2.00
2019-05-10T16:19:45.306Z,2.20
2019-05-10T16:22:13.971Z,2.25
2019-05-10T16:24:42.576Z,1.98
2019-05-10T16:27:11.303Z,1.60
2019-05-10T16:29:41.423Z,1.90
2019-05-10T16:32:10.270Z,2.00
2019-05-10T16:34:38.888Z,2.10
2019-05-10T16:37:07.500Z,1.90
2019-05-10T16:39:36.167Z,2.27
2019-05-10T16:42:04.849Z,1.57
2019-05-10T16:44:33.497Z,1.30
2019-05-10T16:47:02.208Z,1.50
2019-05-10T16:49:30.877Z,1.85
2019-05-10T16:51:59.526Z,1.82
2019-05-10T16:54:28.460Z,2.30
2019-05-10T16:57:01.390Z,2.08
2019-05-10T16:59:29.889Z,2.00
2019-05-10T17:02:03.445Z,2.08
2019-05-10T17:04:31.887Z,2.15
2019-05-10T17:06:58.713Z,2.30
2019-05-10T17:09:27.333Z,2.05
2019-05-10T17:11:58.940Z,2.30
2019-05-10T17:14:26.383Z,1.90
2019-05-10T17:16:58.800Z,2.37
2019-05-10T17:19:27.969Z,3.15
2019-05-10T17:21:55.823Z,2.80
2019-05-10T17:24:25.554Z,2.72
2019-05-10T17:26:54.255Z,3.08
2019-05-10T17:29:22.980Z,3.17
2019-05-10T17:31:51.593Z,2.95
2019-05-10T17:34:27.574Z,3.05
2019-05-10T17:36:51.814Z,2.37
2019-05-10T17:39:25.982Z,2.62
2019-05-10T17:41:51.317Z,2.92
2019-05-10T17:44:23.181Z,2.47
2019-05-10T17:46:55.218Z,2.55
2019-05-10T17:49:20.705Z,2.40
2019-05-10T17:51:49.315Z,2.67
2019-05-10T17:54:17.975Z,2.62
2019-05-10T17:56:46.592Z,2.37
2019-05-10T17:59:15.330Z,2.37
2019-05-10T18:01:43.942Z,2.15
2019-05-10T18:04:12.606Z,2.37
2019-05-10T18:06:41.438Z,2.60
2019-05-10T18:09:11.566Z,2.75
2019-05-10T18:11:42.776Z,2.17
2019-05-10T18:14:12.456Z,2.00
2019-05-10T18:16:41.815Z,1.90
2019-05-10T18:19:11.373Z,1.92
2019-05-10T18:21:40.032Z,1.60
2019-05-10T18:24:08.767Z,1.77
2019-05-10T18:26:39.717Z,1.70
2019-05-10T18:29:07.838Z,1.60
2019-05-10T18:31:36.459Z,1.52
2019-05-10T18:34:05.147Z,1.50
2019-05-10T18:36:51.090Z,1.55
2019-05-10T18:39:09.153Z,1.50
2019-05-10T18:41:36.678Z,1.47
2019-05-10T18:44:05.452Z,1.15
2019-05-10T18:46:34.117Z,1.45
2019-05-10T18:49:02.798Z,1.20
2019-05-10T18:51:34.424Z,1.22
2019-05-10T18:54:01.795Z,1.30
2019-05-10T18:56:31.446Z,1.45
2019-05-10T18:59:06.541Z,1.40
2019-05-10T19:01:32.837Z,1.45
2019-05-10T19:04:01.579Z,1.92
2019-05-10T19:06:31.359Z,1.50
2019-05-10T19:09:00.197Z,1.75
2019-05-10T19:11:33.394Z,1.65
2019-05-10T19:13:59.299Z,1.80
2019-05-10T19:16:32.144Z,1.85
2019-05-10T19:19:01.964Z,1.65
2019-05-10T19:21:30.622Z,1.60
2019-05-10T19:23:59.281Z,1.85
2019-05-10T19:26:29.756Z,1.57
2019-05-10T19:28:58.999Z,1.52
2019-05-10T19:31:31.827Z,1.50
2019-05-10T19:33:59.042Z,1.70
2019-05-10T19:36:27.657Z,1.60
2019-05-10T19:38:56.414Z,1.75
2019-05-10T19:41:25.906Z,1.75
2019-05-10T19:44:01.836Z,1.57
2019-05-10T19:46:30.117Z,1.70
2019-05-10T19:48:56.373Z,1.52
2019-05-10T19:51:24.988Z,1.77
2019-05-10T19:53:53.651Z,1.67
2019-05-10T19:56:22.342Z,1.90
2019-05-10T19:58:51.007Z,1.85
2019-05-10T20:01:19.622Z,1.45
2019-05-10T20:03:48.280Z,1.70
2019-05-10T20:06:16.983Z,1.82
2019-05-10T20:08:45.645Z,1.77
2019-05-10T20:11:14.353Z,1.87
2019-05-10T20:13:43.013Z,1.87
2019-05-10T20:16:11.726Z,1.45
2019-05-10T20:18:40.410Z,1.62
2019-05-10T20:21:09.088Z,1.98
2019-05-10T20:23:37.771Z,1.62
2019-05-10T20:26:06.471Z,1.77
2019-05-10T20:28:35.216Z,1.92
2019-05-10T20:31:03.883Z,1.90
2019-05-10T20:33:32.632Z,1.77
2019-05-10T20:36:01.249Z,1.55
2019-05-10T20:38:29.913Z,1.65
2019-05-10T20:40:58.573Z,2.17
2019-05-10T20:43:27.232Z,1.80
2019-05-10T20:45:55.847Z,1.55
2019-05-10T20:48:24.509Z,1.65
2019-05-10T20:50:53.125Z,1.72
2019-05-10T20:53:21.784Z,1.62
2019-05-10T20:55:50.406Z,1.67
2019-05-10T20:58:19.068Z,1.77
2019-05-10T21:00:47.771Z,1.60
2019-05-10T21:03:16.438Z,1.98
2019-05-10T21:05:45.060Z,1.75
2019-05-10T21:08:17.108Z,1.92
2019-05-10T21:10:44.073Z,1.85
2019-05-10T21:13:12.735Z,1.65
2019-05-10T21:15:41.466Z,1.65
2019-05-10T21:18:10.072Z,1.90
2019-05-10T21:20:38.738Z,1.70
2019-05-10T21:23:07.406Z,1.52
2019-05-10T21:25:36.296Z,2.00
2019-05-10T21:28:04.983Z,2.02
2019-05-10T21:30:33.651Z,1.82
2019-05-10T21:33:02.257Z,2.17
2019-05-10T21:35:30.917Z,2.00
2019-05-10T21:37:59.536Z,1.70
2019-05-10T21:40:28.282Z,1.67
2019-05-10T21:42:56.894Z,1.90
2019-05-10T21:45:25.555Z,1.82
2019-05-10T21:47:54.170Z,1.80
2019-05-10T21:50:22.832Z,1.82
2019-05-10T21:52:51.507Z,1.80
2019-05-10T21:55:20.198Z,2.00
2019-05-10T21:57:48.863Z,2.00
2019-05-10T22:00:17.639Z,2.00
2019-05-10T22:02:46.660Z,2.10
2019-05-10T22:05:15.346Z,2.08
2019-05-10T22:07:44.005Z,1.85
2019-05-10T22:10:13.634Z,2.20
2019-05-10T22:12:42.293Z,2.55
2019-05-10T22:15:11.202Z,2.25
2019-05-10T22:17:39.869Z,1.85
2019-05-10T22:20:09.186Z,2.10
2019-05-10T22:22:37.806Z,2.37
2019-05-10T22:25:06.989Z,2.00
2019-05-10T22:27:35.602Z,2.27
2019-05-10T22:30:07.183Z,2.27
2019-05-10T22:32:35.789Z,2.27
2019-05-10T22:35:06.160Z,2.20
2019-05-10T22:37:34.785Z,2.12
2019-05-10T22:40:04.955Z,2.00
2019-05-10T22:42:33.629Z,2.25
2019-05-10T22:45:02.296Z,1.90
2019-05-10T22:47:30.959Z,2.52
2019-05-10T22:49:59.577Z,1.95
2019-05-10T22:52:28.237Z,2.10
2019-05-10T22:55:00.267Z,2.00
2019-05-10T22:57:27.278Z,2.20
2019-05-10T22:59:55.939Z,2.47
2019-05-10T23:02:24.613Z,2.40
2019-05-10T23:04:53.265Z,2.25
2019-05-10T23:07:21.925Z,2.02
2019-05-10T23:09:50.537Z,2.02
2019-05-10T23:12:19.302Z,2.30
2019-05-10T23:14:47.983Z,2.05
2019-05-10T23:17:16.594Z,2.10
2019-05-10T23:19:45.267Z,2.37
2019-05-10T23:22:13.882Z,2.15
2019-05-10T23:24:42.493Z,2.27
2019-05-10T23:27:11.208Z,2.40
2019-05-10T23:29:39.821Z,2.20
2019-05-10T23:32:08.485Z,2.20
2019-05-10T23:34:37.117Z,2.02
2019-05-10T23:37:05.840Z,2.17
2019-05-10T23:39:40.767Z,2.30
2019-05-10T23:42:05.066Z,2.20
2019-05-10T23:44:33.687Z,2.30
2019-05-10T23:47:02.469Z,2.02
2019-05-10T23:49:31.228Z,2.12
2019-05-10T23:51:59.885Z,2.20
2019-05-10T23:54:28.496Z,1.85
2019-05-10T23:56:57.165Z,1.98
2019-05-10T23:59:25.869Z,2.05
